createdAt,value
2023-03-02T00:01:25.996Z,66.94
2023-03-02T00:06:35.810Z,67.10
2023-03-02T00:11:43.282Z,67.25
2023-03-02T00:16:50.439Z,67.16
2023-03-02T00:21:57.590Z,67.18
2023-03-02T00:27:04.845Z,67.14
2023-03-02T00:32:18.295Z,67.20
2023-03-02T00:37:26.433Z,67.30
2023-03-02T00:42:33.728Z,67.39
2023-03-02T00:47:42.227Z,67.58
2023-03-02T00:52:49.790Z,67.79
2023-03-02T00:57:57.377Z,67.95
2023-03-02T01:03:08.311Z,68.01
2023-03-02T01:08:15.670Z,68.01
2023-03-02T01:13:23.062Z,68.07
2023-03-02T01:18:30.369Z,68.19
2023-03-02T01:23:37.622Z,68.37
2023-03-02T01:28:44.770Z,68.29
2023-03-02T01:33:52.134Z,68.31
2023-03-02T01:38:59.272Z,68.35
2023-03-02T01:44:06.610Z,68.50
2023-03-02T01:49:16.551Z,68.49
2023-03-02T01:54:32.778Z,68.54
2023-03-02T01:59:43.265Z,68.69
2023-03-02T02:04:51.231Z,68.79
2023-03-02T02:09:57.682Z,68.79
2023-03-02T02:15:07.467Z,68.83
2023-03-02T02:20:24.494Z,69.14
2023-03-02T02:25:46.337Z,69.06
2023-03-02T02:31:01.073Z,69.10
2023-03-02T02:36:17.032Z,69.00
2023-03-02T02:41:27.710Z,69.08
2023-03-02T02:46:35.697Z,69.13
2023-03-02T02:51:42.919Z,69.34
2023-03-02T02:56:53.360Z,69.38
2023-03-02T03:02:01.346Z,69.33
2023-03-02T03:07:11.846Z,69.37
2023-03-02T03:12:22.487Z,69.51
2023-03-02T03:17:29.716Z,69.49
2023-03-02T03:22:40.833Z,69.40
2023-03-02T03:27:49.701Z,69.37
2023-03-02T03:32:57.472Z,69.56
2023-03-02T03:38:05.620Z,69.38
2023-03-02T03:43:15.279Z,69.45
2023-03-02T03:48:27.193Z,69.36
2023-03-02T03:53:34.577Z,69.44
2023-03-02T03:58:42.960Z,69.39
2023-03-02T04:03:50.803Z,69.43
2023-03-02T04:08:58.437Z,69.38
2023-03-02T04:14:06.157Z,69.54
2023-03-02T04:19:15.396Z,69.44
2023-03-02T04:24:24.654Z,69.44
2023-03-02T04:29:35.150Z,69.37
2023-03-02T04:34:43.825Z,69.29
2023-03-02T04:39:52.912Z,69.37
2023-03-02T04:45:00.469Z,69.47
2023-03-02T04:50:09.859Z,69.44
2023-03-02T04:55:21.882Z,69.39
2023-03-02T05:00:31.284Z,69.53
2023-03-02T05:05:40.010Z,69.61
2023-03-02T05:10:47.158Z,69.56
2023-03-02T05:15:57.672Z,69.56
2023-03-02T05:21:05.183Z,69.49
2023-03-02T05:26:12.615Z,69.54
2023-03-02T05:31:23.433Z,69.62
2023-03-02T05:36:30.762Z,69.61
2023-03-02T05:41:38.521Z,69.50
2023-03-02T05:46:46.296Z,69.65
2023-03-02T05:51:53.578Z,69.73
2023-03-02T05:57:00.800Z,69.77
2023-03-02T06:02:08.087Z,69.77
2023-03-02T06:07:15.738Z,69.77
2023-03-02T06:12:23.010Z,69.81
2023-03-02T06:17:30.649Z,69.86
2023-03-02T06:22:38.705Z,69.94
2023-03-02T06:27:44.788Z,69.94
2023-03-02T06:32:52.334Z,70.00
2023-03-02T06:37:59.679Z,70.08
2023-03-02T06:43:06.974Z,70.04
2023-03-02T06:48:14.130Z,70.14
2023-03-02T06:53:23.617Z,70.05
2023-03-02T06:58:30.790Z,70.14
2023-03-02T07:03:38.117Z,70.07
2023-03-02T07:08:46.040Z,70.03
2023-03-02T07:13:52.316Z,69.98
2023-03-02T07:18:59.546Z,69.95
2023-03-02T07:24:06.291Z,69.95
2023-03-02T07:29:13.521Z,70.04
2023-03-02T07:34:20.599Z,69.98
2023-03-02T07:39:27.792Z,69.85
2023-03-02T07:44:35.578Z,69.85
2023-03-02T07:49:42.850Z,69.78
2023-03-02T07:55:03.540Z,69.69
2023-03-02T08:00:13.225Z,69.71
2023-03-02T08:05:20.619Z,69.73
2023-03-02T08:10:27.871Z,69.55
2023-03-02T08:15:35.225Z,69.47
2023-03-02T08:20:42.374Z,69.44
2023-03-02T08:25:49.914Z,69.31
2023-03-02T08:31:01.705Z,69.04
2023-03-02T08:36:12.782Z,69.18
2023-03-02T08:41:21.817Z,69.88
2023-03-02T08:46:29.173Z,69.38
2023-03-02T08:51:36.385Z,68.09
2023-03-02T08:56:44.667Z,67.77
2023-03-02T09:01:51.916Z,67.49
2023-03-02T09:06:59.261Z,67.82
2023-03-02T09:12:06.915Z,66.85
2023-03-02T09:17:15.794Z,66.46
2023-03-02T09:22:22.878Z,66.22
2023-03-02T09:27:30.161Z,65.36
2023-03-02T09:32:37.535Z,64.82
2023-03-02T09:37:45.074Z,64.11
2023-03-02T09:43:20.023Z,63.18
2023-03-02T09:48:38.810Z,63.54
2023-03-02T09:53:54.488Z,63.81
2023-03-02T09:59:08.114Z,62.89
2023-03-02T10:04:25.619Z,62.92
2023-03-02T10:09:32.964Z,61.96
2023-03-02T10:14:45.153Z,61.89
2023-03-02T10:19:58.820Z,62.02
2023-03-02T10:25:18.627Z,61.47
2023-03-02T10:30:31.092Z,61.44
2023-03-02T10:35:46.456Z,61.31
2023-03-02T10:41:00.330Z,61.55
2023-03-02T10:46:09.800Z,61.37
2023-03-02T10:51:24.974Z,61.16
2023-03-02T10:56:33.360Z,61.20
2023-03-02T11:01:42.023Z,61.07
2023-03-02T11:06:49.447Z,60.88
2023-03-02T11:12:01.112Z,60.85
2023-03-02T11:17:31.219Z,60.69
2023-03-02T11:22:43.212Z,60.66
2023-03-02T11:27:58.224Z,60.56
2023-03-02T11:33:14.490Z,60.39
2023-03-02T11:38:26.085Z,60.40
2023-03-02T11:43:33.475Z,60.33
2023-03-02T11:48:44.110Z,60.10
2023-03-02T11:53:54.844Z,60.08
2023-03-02T11:59:05.171Z,60.18
2023-03-02T12:04:27.351Z,60.29
2023-03-02T12:09:43.114Z,60.10
2023-03-02T12:14:50.612Z,60.14
2023-03-02T12:20:11.665Z,59.94
2023-03-02T12:25:41.509Z,59.85
2023-03-02T12:31:03.914Z,59.88
2023-03-02T12:36:20.021Z,59.94
2023-03-02T12:41:45.986Z,59.87
2023-03-02T12:46:54.655Z,59.55
2023-03-02T12:52:03.998Z,59.40
2023-03-02T12:57:18.091Z,59.37
2023-03-02T13:02:27.505Z,59.21
2023-03-02T13:07:39.843Z,59.24
2023-03-02T13:12:49.127Z,59.37
2023-03-02T13:18:01.491Z,59.26
2023-03-02T13:23:08.731Z,59.34
2023-03-02T13:28:29.472Z,59.24
2023-03-02T13:33:45.058Z,59.17
2023-03-02T13:38:55.104Z,59.02
2023-03-02T13:44:13.866Z,59.05
2023-03-02T13:49:32.570Z,59.08
2023-03-02T13:54:42.697Z,58.94
2023-03-02T13:59:50.359Z,58.86
2023-03-02T14:04:58.455Z,58.95
2023-03-02T14:10:06.438Z,58.88
2023-03-02T14:15:17.895Z,58.88
2023-03-02T14:20:25.110Z,58.83
2023-03-02T14:25:32.725Z,58.79
2023-03-02T14:30:41.775Z,58.93
2023-03-02T14:35:49.926Z,58.81
2023-03-02T14:40:57.354Z,58.80
2023-03-02T14:46:04.546Z,58.72
2023-03-02T14:51:22.250Z,58.82
2023-03-02T14:56:29.875Z,58.82
2023-03-02T15:01:37.146Z,58.72
2023-03-02T15:06:45.280Z,58.74
2023-03-02T15:11:52.526Z,58.64
2023-03-02T15:16:59.673Z,58.57
2023-03-02T15:22:07.068Z,58.64
2023-03-02T15:27:14.247Z,58.58
2023-03-02T15:32:21.478Z,58.62
2023-03-02T15:37:28.655Z,58.62
2023-03-02T15:42:36.355Z,58.60
2023-03-02T15:47:43.501Z,58.61
2023-03-02T15:52:51.342Z,58.60
2023-03-02T15:57:59.941Z,58.62
2023-03-02T16:03:07.086Z,58.68
2023-03-02T16:08:14.395Z,58.71
2023-03-02T16:13:21.535Z,58.79
2023-03-02T16:18:28.694Z,58.74
2023-03-02T16:23:35.794Z,58.67
2023-03-02T16:28:43.460Z,58.73
2023-03-02T16:33:51.693Z,58.72
2023-03-02T16:38:58.862Z,58.68
2023-03-02T16:44:06.185Z,58.79
2023-03-02T16:49:14.802Z,58.81
2023-03-02T16:54:22.030Z,58.82
2023-03-02T16:59:29.170Z,58.83
2023-03-02T17:04:37.356Z,58.92
2023-03-02T17:09:44.914Z,58.89
2023-03-02T17:14:52.086Z,58.91
2023-03-02T17:19:59.275Z,59.07
2023-03-02T17:25:07.312Z,59.12
2023-03-02T17:30:14.181Z,59.07
2023-03-02T17:35:21.429Z,59.23
2023-03-02T17:40:28.559Z,59.43
2023-03-02T17:45:35.951Z,59.37
2023-03-02T17:50:43.053Z,59.54
2023-03-02T17:55:50.397Z,59.60
2023-03-02T18:00:57.497Z,59.63
2023-03-02T18:06:04.880Z,59.81
2023-03-02T18:11:11.961Z,59.90
2023-03-02T18:16:19.173Z,59.98
2023-03-02T18:21:26.685Z,59.97
2023-03-02T18:26:33.790Z,59.96
2023-03-02T18:31:40.984Z,60.11
2023-03-02T18:36:48.295Z,60.10
2023-03-02T18:41:55.384Z,60.11
2023-03-02T18:47:02.687Z,60.20
2023-03-02T18:52:10.903Z,60.33
2023-03-02T18:57:18.920Z,60.38
2023-03-02T19:02:24.565Z,60.54
2023-03-02T19:07:31.856Z,60.62
2023-03-02T19:12:39.051Z,60.78
2023-03-02T19:17:47.253Z,60.99
2023-03-02T19:22:54.464Z,61.13
2023-03-02T19:28:01.627Z,61.21
2023-03-02T19:33:10.047Z,61.31
2023-03-02T19:38:18.458Z,61.43
2023-03-02T19:43:25.643Z,61.47
2023-03-02T19:48:34.127Z,61.57
2023-03-02T19:53:42.339Z,61.68
2023-03-02T19:58:53.710Z,61.71
2023-03-02T20:04:02.170Z,61.82
2023-03-02T20:09:10.035Z,61.92
2023-03-02T20:14:32.745Z,62.14
2023-03-02T20:19:40.547Z,62.34
2023-03-02T20:24:47.853Z,62.44
2023-03-02T20:29:55.160Z,62.53
2023-03-02T20:35:02.909Z,62.60
2023-03-02T20:40:12.381Z,62.82
2023-03-02T20:45:19.630Z,62.89
2023-03-02T20:50:30.939Z,63.04
2023-03-02T20:55:38.281Z,63.07
2023-03-02T21:00:46.219Z,63.24
2023-03-02T21:05:53.967Z,63.38
2023-03-02T21:11:01.596Z,63.36
2023-03-02T21:16:08.722Z,63.42
2023-03-02T21:21:16.731Z,63.53
2023-03-02T21:26:24.718Z,63.46
2023-03-02T21:31:30.478Z,63.64
2023-03-02T21:36:38.076Z,63.83
2023-03-02T21:41:45.243Z,63.82
2023-03-02T21:46:52.790Z,64.00
2023-03-02T21:52:00.181Z,64.02
2023-03-02T21:57:08.533Z,64.24
2023-03-02T22:02:15.873Z,64.34
2023-03-02T22:07:23.141Z,64.49
2023-03-02T22:12:30.431Z,64.68
2023-03-02T22:17:37.705Z,64.71
2023-03-02T22:22:45.019Z,64.84
2023-03-02T22:27:52.265Z,64.88
2023-03-02T22:33:01.190Z,65.07
2023-03-02T22:38:14.411Z,65.24
2023-03-02T22:43:27.227Z,65.35
2023-03-02T22:48:37.710Z,65.43
2023-03-02T22:53:50.932Z,65.45
2023-03-02T22:59:00.417Z,65.71
2023-03-02T23:04:20.764Z,65.69
2023-03-02T23:09:30.596Z,65.71
2023-03-02T23:14:46.038Z,65.80
2023-03-02T23:19:54.108Z,65.98
2023-03-02T23:25:01.372Z,66.06
2023-03-02T23:30:11.786Z,65.98
2023-03-02T23:35:19.190Z,66.16
2023-03-02T23:40:26.345Z,66.36
2023-03-02T23:45:33.625Z,66.49
2023-03-02T23:50:40.992Z,66.52
2023-03-02T23:55:50.599Z,66.64
